Terminal Aerodrome Forecast
Issued by NWS

Home | Current Version | Previous Version | Text Only | Print | Product List | Glossary On
Versions: 1 2 3 4 5 6 7 8 9 10 11 12 13 14 15
000
FTUS43 KICT 302329
TAFHUT
TAF
KHUT 302329Z 3100/3124 17007KT P6SM OVC080
     FM310700 14005KT P6SM -RA SCT015 OVC030
     FM311100 17008KT P6SM -RA OVC015=

USA.gov is the U.S. government's official web portal to all federal, state and local government web resources and services.